Time;durP1;ratioP1;P1;durP2;ratioP2;P2;SDS_P1;SDS_P2;PMS_P1;PMS_P2;Temp;Humidity;BMP_temperature;BMP_pressure;BME280_temperature;BME280_humidity;BME280_pressure;Samples;Min_cycle;Max_cycle;Signal;HPM_P1;HPM_P2
2021/12/23 00:00:58;;;;;;;12.30;7.07;;;;;;;;;;5036242;28;20186;-77
2021/12/23 00:03:24;;;;;;;12.30;7.30;;;;;;;;;;5054668;28;20178;-77
2021/12/23 00:05:49;;;;;;;9.90;6.57;;;;;;;;;;5037504;28;20180;-77
2021/12/23 00:08:14;;;;;;;13.63;7.50;;;;;;;;;;5040265;28;20189;-77
2021/12/23 00:10:40;;;;;;;10.77;6.40;;;;;;;;;;5032041;28;20185;-77
2021/12/23 00:13:05;;;;;;;9.00;5.17;;;;;;;;;;5039703;28;20280;-77
2021/12/23 00:15:38;;;;;;;8.10;5.50;;;;;;;;;;5033265;28;20204;-77
2021/12/23 00:18:18;;;;;;;8.40;5.17;;;;;;;;;;5036407;28;20186;-77
2021/12/23 00:23:27;;;;;;;8.03;4.97;;;;;;;;;;5050322;28;20182;-77
2021/12/23 00:25:55;;;;;;;11.43;6.70;;;;;;;;;;5049510;28;20180;-77
2021/12/23 00:28:21;;;;;;;9.33;6.17;;;;;;;;;;5034456;28;20570;-77
2021/12/23 00:30:46;;;;;;;12.40;6.10;;;;;;;;;;5032362;28;20205;-77
2021/12/23 00:33:11;;;;;;;12.60;6.33;;;;;;;;;;5032229;28;20178;-77
2021/12/23 00:35:37;;;;;;;7.47;4.50;;;;;;;;;;5033330;28;20198;-77
2021/12/23 00:38:10;;;;;;;9.27;5.47;;;;;;;;;;5036450;28;20232;-77
2021/12/23 00:40:35;;;;;;;10.37;5.80;;;;;;;;;;5033712;28;20256;-77
2021/12/23 00:43:00;;;;;;;9.50;5.07;;;;;;;;;;5026528;28;20262;-77
2021/12/23 00:45:26;;;;;;;7.83;4.73;;;;;;;;;;5015976;28;20326;-77
2021/12/23 00:47:51;;;;;;;6.77;4.77;;;;;;;;;;5015655;28;20277;-77
2021/12/23 00:50:16;;;;;;;12.03;5.67;;;;;;;;;;5018787;28;20184;-77
2021/12/23 00:52:41;;;;;;;7.00;4.43;;;;;;;;;;5014782;28;20190;-77
2021/12/23 00:55:08;;;;;;;6.23;3.93;;;;;;;;;;5013176;28;20178;-77
2021/12/23 00:57:38;;;;;;;6.70;3.83;;;;;;;;;;5012664;28;20199;-77
2021/12/23 01:00:04;;;;;;;6.30;4.70;;;;;;;;;;5009152;28;20274;-77
2021/12/23 01:02:31;;;;;;;10.27;5.23;;;;;;;;;;5015868;28;20182;-79
2021/12/23 01:04:57;;;;;;;6.23;4.53;;;;;;;;;;5017305;28;20175;-77
2021/12/23 01:07:23;;;;;;;8.40;4.10;;;;;;;;;;5038589;28;20170;-77
2021/12/23 01:09:48;;;;;;;7.23;4.30;;;;;;;;;;5014767;28;20183;-77
2021/12/23 01:12:16;;;;;;;8.87;4.20;;;;;;;;;;5011458;28;20183;-77
2021/12/23 01:14:53;;;;;;;5.30;3.23;;;;;;;;;;5015800;28;20217;-77
2021/12/23 01:19:50;;;;;;;7.20;4.53;;;;;;;;;;5029319;28;20234;-77
2021/12/23 01:22:15;;;;;;;7.60;3.93;;;;;;;;;;5011755;28;20221;-77
2021/12/23 01:24:40;;;;;;;10.70;4.97;;;;;;;;;;5013992;28;20214;-77
2021/12/23 01:27:06;;;;;;;6.60;4.30;;;;;;;;;;5013806;28;20185;-77
2021/12/23 01:29:31;;;;;;;7.60;4.47;;;;;;;;;;5011660;28;20214;-77
2021/12/23 01:31:56;;;;;;;5.00;3.67;;;;;;;;;;5026498;28;20202;-77
2021/12/23 01:34:21;;;;;;;6.33;3.70;;;;;;;;;;5030427;28;20202;-77
2021/12/23 01:36:46;;;;;;;6.30;3.43;;;;;;;;;;5011759;28;20189;-77
2021/12/23 01:39:14;;;;;;;6.27;4.00;;;;;;;;;;5015716;28;20199;-77
2021/12/23 01:41:39;;;;;;;5.40;3.17;;;;;;;;;;5014915;28;20224;-77
2021/12/23 01:44:05;;;;;;;8.00;3.53;;;;;;;;;;5051867;28;20225;-77
2021/12/23 01:46:30;;;;;;;6.97;3.93;;;;;;;;;;5072679;28;20192;-77
2021/12/23 01:48:55;;;;;;;6.13;3.87;;;;;;;;;;5056121;28;20220;-77
2021/12/23 01:51:20;;;;;;;6.60;3.63;;;;;;;;;;5056087;28;20173;-77
2021/12/23 01:53:46;;;;;;;6.53;4.67;;;;;;;;;;5055125;28;20309;-77
2021/12/23 01:56:11;;;;;;;7.17;3.63;;;;;;;;;;5054820;28;20185;-77
2021/12/23 01:58:37;;;;;;;7.83;4.43;;;;;;;;;;5064281;28;20287;-77
2021/12/23 02:01:03;;;;;;;4.87;3.60;;;;;;;;;;5053973;28;20173;-77
2021/12/23 02:03:28;;;;;;;5.57;2.83;;;;;;;;;;5055576;28;20177;-77
2021/12/23 02:05:53;;;;;;;5.63;2.90;;;;;;;;;;5057128;28;20276;-77
2021/12/23 02:08:19;;;;;;;4.70;3.07;;;;;;;;;;5053168;28;20216;-77
2021/12/23 02:10:44;;;;;;;5.47;3.03;;;;;;;;;;5052677;28;20243;-77
2021/12/23 02:13:10;;;;;;;3.10;2.70;;;;;;;;;;5058615;28;20255;-77
2021/12/23 02:15:35;;;;;;;3.53;2.30;;;;;;;;;;5058110;28;20204;-77
2021/12/23 02:18:00;;;;;;;4.93;3.10;;;;;;;;;;5055775;28;20224;-77
2021/12/23 02:20:30;;;;;;;4.90;2.67;;;;;;;;;;5054857;28;20212;-77
2021/12/23 02:22:55;;;;;;;2.90;2.27;;;;;;;;;;5074357;28;20185;-77
2021/12/23 02:25:20;;;;;;;4.40;1.90;;;;;;;;;;5055434;28;20240;-77
2021/12/23 02:27:46;;;;;;;2.43;1.70;;;;;;;;;;5054349;28;20193;-77
2021/12/23 02:30:14;;;;;;;2.20;1.87;;;;;;;;;;5053176;28;20272;-77
2021/12/23 02:32:40;;;;;;;1.97;1.73;;;;;;;;;;5057340;28;20204;-77
2021/12/23 02:35:06;;;;;;;1.67;1.47;;;;;;;;;;5058669;28;20212;-77
2021/12/23 02:37:31;;;;;;;2.27;2.07;;;;;;;;;;5066558;28;20197;-77
2021/12/23 02:39:56;;;;;;;4.40;1.73;;;;;;;;;;5050154;28;20231;-77
2021/12/23 02:42:24;;;;;;;1.60;1.50;;;;;;;;;;5057073;28;20233;-77
2021/12/23 02:44:49;;;;;;;1.93;1.50;;;;;;;;;;5053573;28;20174;-77
2021/12/23 02:47:18;;;;;;;2.17;1.60;;;;;;;;;;5049752;28;20173;-77
2021/12/23 02:49:43;;;;;;;2.07;1.30;;;;;;;;;;5051609;28;20178;-77
2021/12/23 02:52:08;;;;;;;3.27;1.57;;;;;;;;;;5053623;28;20197;-77
2021/12/23 02:54:33;;;;;;;2.30;2.10;;;;;;;;;;5050217;28;20181;-77
2021/12/23 02:56:59;;;;;;;2.03;1.83;;;;;;;;;;5051060;28;20186;-77
2021/12/23 02:59:24;;;;;;;1.77;1.67;;;;;;;;;;5051980;28;20255;-77
2021/12/23 03:01:49;;;;;;;2.10;1.50;;;;;;;;;;5049310;28;20280;-77
2021/12/23 03:04:14;;;;;;;4.00;1.80;;;;;;;;;;5048784;28;20491;-77
2021/12/23 03:06:39;;;;;;;1.77;1.60;;;;;;;;;;5048426;28;20210;-77
2021/12/23 03:09:05;;;;;;;2.07;1.43;;;;;;;;;;5050473;28;20174;-77
2021/12/23 03:11:30;;;;;;;1.50;1.40;;;;;;;;;;5045909;28;20267;-77
2021/12/23 03:13:56;;;;;;;3.17;1.87;;;;;;;;;;5047215;28;20221;-77
2021/12/23 03:16:22;;;;;;;2.53;2.03;;;;;;;;;;5047083;28;20184;-77
2021/12/23 03:18:48;;;;;;;1.90;1.70;;;;;;;;;;5032187;28;20206;-77
2021/12/23 03:21:13;;;;;;;1.77;1.67;;;;;;;;;;5031343;28;20174;-77
2021/12/23 03:23:38;;;;;;;1.70;1.60;;;;;;;;;;5034310;28;20301;-77
2021/12/23 03:26:04;;;;;;;2.43;2.10;;;;;;;;;;5034616;28;20178;-77
2021/12/23 03:28:30;;;;;;;2.97;1.90;;;;;;;;;;5030506;28;20213;-77
2021/12/23 03:30:55;;;;;;;2.73;2.03;;;;;;;;;;5037534;28;20189;-77
2021/12/23 03:33:20;;;;;;;2.50;1.73;;;;;;;;;;5032218;28;20182;-77
2021/12/23 03:35:46;;;;;;;5.23;2.00;;;;;;;;;;5032841;28;20182;-77
2021/12/23 03:38:11;;;;;;;3.03;2.30;;;;;;;;;;5032322;28;20252;-77
2021/12/23 03:40:37;;;;;;;3.13;2.40;;;;;;;;;;5032519;28;20205;-76
2021/12/23 03:43:03;;;;;;;3.13;1.90;;;;;;;;;;5024127;28;20282;-77
2021/12/23 03:45:28;;;;;;;3.23;1.73;;;;;;;;;;5012031;28;20218;-77
2021/12/23 03:47:53;;;;;;;2.27;1.87;;;;;;;;;;5014964;28;20178;-77
2021/12/23 03:50:19;;;;;;;1.70;1.60;;;;;;;;;;5014222;28;20179;-77
2021/12/23 03:52:45;;;;;;;1.90;1.50;;;;;;;;;;5026774;28;20187;-77
2021/12/23 03:55:11;;;;;;;2.00;1.50;;;;;;;;;;4999257;28;20201;-77
2021/12/23 03:57:36;;;;;;;2.80;2.00;;;;;;;;;;5011579;28;20207;-77
2021/12/23 04:00:02;;;;;;;4.10;1.87;;;;;;;;;;5030583;28;20171;-77
2021/12/23 04:02:28;;;;;;;3.73;2.10;;;;;;;;;;5013503;28;20190;-77
2021/12/23 04:04:53;;;;;;;1.63;1.40;;;;;;;;;;5012304;28;20170;-77
2021/12/23 04:07:18;;;;;;;3.17;2.17;;;;;;;;;;5012854;28;20278;-77
2021/12/23 04:09:43;;;;;;;2.43;1.57;;;;;;;;;;5012425;28;20202;-78
2021/12/23 04:12:09;;;;;;;2.67;1.57;;;;;;;;;;5015364;28;20193;-77
2021/12/23 04:14:34;;;;;;;3.20;1.80;;;;;;;;;;5012473;28;20171;-77
2021/12/23 04:16:59;;;;;;;3.13;1.83;;;;;;;;;;5016531;28;20248;-76
2021/12/23 04:19:28;;;;;;;3.10;1.70;;;;;;;;;;5013344;28;20232;-77
2021/12/23 04:21:54;;;;;;;4.83;1.93;;;;;;;;;;5010786;28;20337;-77
2021/12/23 04:24:19;;;;;;;3.70;1.63;;;;;;;;;;5009536;28;20250;-77
2021/12/23 04:26:44;;;;;;;2.47;1.50;;;;;;;;;;5016126;28;20300;-77
2021/12/23 04:29:09;;;;;;;2.10;1.90;;;;;;;;;;5014457;28;20195;-77
2021/12/23 04:31:35;;;;;;;2.87;1.50;;;;;;;;;;4995060;28;20187;-77
2021/12/23 04:34:00;;;;;;;3.03;2.60;;;;;;;;;;5005517;28;20206;-77
2021/12/23 04:36:31;;;;;;;3.13;2.00;;;;;;;;;;5013014;28;20202;-77
2021/12/23 04:38:58;;;;;;;2.23;1.63;;;;;;;;;;5013672;28;20198;-77
2021/12/23 04:41:24;;;;;;;2.10;1.90;;;;;;;;;;5013043;28;20186;-76
2021/12/23 04:43:49;;;;;;;2.33;1.83;;;;;;;;;;5028393;28;20244;-77
2021/12/23 04:46:14;;;;;;;2.97;1.80;;;;;;;;;;5053044;28;20178;-77
2021/12/23 04:48:39;;;;;;;2.50;2.13;;;;;;;;;;5047491;28;20283;-77
2021/12/23 04:51:05;;;;;;;2.73;1.80;;;;;;;;;;5040245;28;20194;-77
2021/12/23 04:53:30;;;;;;;2.87;1.80;;;;;;;;;;5051035;28;20187;-77
2021/12/23 04:55:55;;;;;;;2.03;1.93;;;;;;;;;;5055884;28;20193;-76
2021/12/23 04:58:20;;;;;;;1.83;1.27;;;;;;;;;;5067898;28;20229;-76
2021/12/23 05:00:48;;;;;;;1.90;1.57;;;;;;;;;;5041958;28;20319;-77
2021/12/23 05:03:14;;;;;;;2.33;1.90;;;;;;;;;;5036296;28;20180;-77
2021/12/23 05:05:39;;;;;;;3.77;2.40;;;;;;;;;;5046558;28;20189;-77
2021/12/23 05:08:06;;;;;;;2.33;1.37;;;;;;;;;;5060143;28;20273;-77
2021/12/23 05:10:31;;;;;;;2.03;1.60;;;;;;;;;;5064408;28;20205;-77
2021/12/23 05:12:57;;;;;;;2.00;1.83;;;;;;;;;;5036116;28;20206;-77
2021/12/23 05:15:22;;;;;;;2.03;1.60;;;;;;;;;;5054395;28;20210;-77
2021/12/23 05:17:47;;;;;;;1.73;1.63;;;;;;;;;;5038052;28;20197;-77
2021/12/23 05:20:14;;;;;;;6.07;4.40;;;;;;;;;;5068795;28;20178;-77
2021/12/23 05:22:39;;;;;;;5.47;2.50;;;;;;;;;;5055374;28;20184;-77
2021/12/23 05:25:05;;;;;;;2.37;1.93;;;;;;;;;;5043465;28;20178;-77
2021/12/23 05:27:31;;;;;;;1.67;1.50;;;;;;;;;;5041277;28;20193;-77
2021/12/23 05:29:56;;;;;;;2.53;1.90;;;;;;;;;;5054538;28;20170;-77
2021/12/23 05:32:21;;;;;;;6.37;3.63;;;;;;;;;;5058609;28;20213;-76
2021/12/23 05:34:46;;;;;;;2.40;2.20;;;;;;;;;;5062826;28;20183;-77
2021/12/23 05:37:12;;;;;;;5.73;2.83;;;;;;;;;;5047648;28;20181;-77
2021/12/23 05:39:37;;;;;;;2.97;1.70;;;;;;;;;;5042124;28;20273;-77
2021/12/23 05:42:02;;;;;;;2.93;2.13;;;;;;;;;;5069739;28;20201;-77
2021/12/23 05:44:27;;;;;;;4.20;2.30;;;;;;;;;;5045573;28;20181;-77
2021/12/23 05:46:54;;;;;;;3.00;1.97;;;;;;;;;;5054031;28;20184;-77
2021/12/23 05:49:19;;;;;;;2.53;2.20;;;;;;;;;;5047801;28;20184;-77
2021/12/23 05:51:44;;;;;;;2.43;2.07;;;;;;;;;;5056211;28;20272;-77
2021/12/23 05:54:09;;;;;;;5.73;2.47;;;;;;;;;;5055132;28;20185;-77
2021/12/23 05:56:34;;;;;;;3.77;2.60;;;;;;;;;;5047094;28;20209;-77
2021/12/23 05:59:00;;;;;;;3.07;2.27;;;;;;;;;;5051187;28;20205;-77
2021/12/23 06:01:26;;;;;;;3.47;2.47;;;;;;;;;;5052439;28;20181;-77
2021/12/23 06:03:51;;;;;;;3.07;2.37;;;;;;;;;;5045532;28;20236;-77
2021/12/23 06:06:16;;;;;;;5.37;2.93;;;;;;;;;;5067122;28;20227;-76
2021/12/23 06:08:41;;;;;;;5.43;2.90;;;;;;;;;;5069109;28;20254;-77
2021/12/23 06:11:07;;;;;;;4.63;3.80;;;;;;;;;;5052124;28;20189;-77
2021/12/23 06:13:32;;;;;;;6.80;3.00;;;;;;;;;;5062843;28;20172;-76
2021/12/23 06:15:57;;;;;;;4.47;2.70;;;;;;;;;;5054428;28;20263;-76
2021/12/23 06:18:23;;;;;;;4.23;2.83;;;;;;;;;;5056578;28;20358;-77
2021/12/23 06:20:48;;;;;;;4.53;3.53;;;;;;;;;;5070724;28;20186;-76
2021/12/23 06:23:13;;;;;;;3.13;2.50;;;;;;;;;;5033069;28;20170;-76
2021/12/23 06:25:38;;;;;;;4.53;2.87;;;;;;;;;;5072428;28;20189;-77
2021/12/23 06:28:04;;;;;;;3.30;2.70;;;;;;;;;;5069367;28;20181;-77
2021/12/23 06:30:29;;;;;;;4.87;2.77;;;;;;;;;;5037256;28;20217;-77
2021/12/23 06:32:55;;;;;;;4.57;2.73;;;;;;;;;;5056131;28;20196;-76
2021/12/23 06:35:20;;;;;;;3.07;2.40;;;;;;;;;;5061533;28;20177;-76
2021/12/23 06:37:46;;;;;;;2.93;1.90;;;;;;;;;;5057414;28;20290;-76
2021/12/23 06:40:12;;;;;;;3.00;2.70;;;;;;;;;;5054570;28;20289;-76
2021/12/23 06:42:37;;;;;;;3.27;2.40;;;;;;;;;;5063939;28;20226;-76
2021/12/23 06:45:03;;;;;;;4.33;3.40;;;;;;;;;;5029202;28;20179;-76
2021/12/23 06:47:28;;;;;;;6.83;3.80;;;;;;;;;;5013687;28;20262;-76
2021/12/23 06:49:54;;;;;;;3.67;3.20;;;;;;;;;;5019320;28;20183;-76
2021/12/23 06:52:19;;;;;;;2.40;2.20;;;;;;;;;;5029591;28;20170;-76
2021/12/23 06:54:46;;;;;;;2.40;2.03;;;;;;;;;;5012164;28;20515;-76
2021/12/23 06:57:12;;;;;;;4.30;3.10;;;;;;;;;;5012763;28;20266;-76
2021/12/23 06:59:38;;;;;;;4.03;2.83;;;;;;;;;;5008111;28;20214;-76
2021/12/23 07:02:03;;;;;;;4.77;3.73;;;;;;;;;;5010344;28;20181;-76
2021/12/23 07:04:32;;;;;;;6.13;4.07;;;;;;;;;;5016567;28;20178;-76
2021/12/23 07:07:08;;;;;;;6.73;4.93;;;;;;;;;;5034462;28;20183;-76
2021/12/23 07:09:33;;;;;;;4.07;3.53;;;;;;;;;;5016280;28;20187;-76
2021/12/23 07:11:58;;;;;;;4.80;3.17;;;;;;;;;;5015488;28;20174;-76
2021/12/23 07:14:23;;;;;;;5.47;3.70;;;;;;;;;;5013045;28;20181;-76
2021/12/23 07:16:49;;;;;;;4.87;3.63;;;;;;;;;;5016208;28;20187;-76
2021/12/23 07:19:14;;;;;;;4.77;3.73;;;;;;;;;;5013648;28;20208;-76
2021/12/23 07:21:39;;;;;;;5.70;3.63;;;;;;;;;;5031697;28;20178;-76
2021/12/23 07:24:05;;;;;;;5.20;3.73;;;;;;;;;;5013156;28;20183;-76
2021/12/23 07:26:30;;;;;;;7.23;4.20;;;;;;;;;;5048027;28;20177;-76
2021/12/23 07:28:55;;;;;;;5.17;3.73;;;;;;;;;;5032313;28;20186;-76
2021/12/23 07:31:20;;;;;;;4.70;3.37;;;;;;;;;;5030209;28;20177;-76
2021/12/23 07:33:45;;;;;;;5.13;3.60;;;;;;;;;;5054247;28;20197;-76
2021/12/23 07:36:10;;;;;;;2.90;2.60;;;;;;;;;;5031711;28;20193;-76
2021/12/23 07:38:36;;;;;;;5.13;2.97;;;;;;;;;;5030123;28;20218;-76
2021/12/23 07:41:02;;;;;;;3.97;2.93;;;;;;;;;;5046939;28;20171;-76
2021/12/23 07:46:03;;;;;;;4.57;3.50;;;;;;;;;;5050640;28;20177;-76
2021/12/23 07:48:31;;;;;;;4.30;2.73;;;;;;;;;;5046846;28;20181;-76
2021/12/23 07:50:57;;;;;;;2.53;2.33;;;;;;;;;;5049595;28;20224;-76
2021/12/23 07:53:22;;;;;;;3.03;2.50;;;;;;;;;;5049211;28;20272;-76
2021/12/23 07:55:47;;;;;;;2.83;2.30;;;;;;;;;;5051091;28;20897;-76
2021/12/23 07:58:12;;;;;;;4.63;2.43;;;;;;;;;;5049982;28;20326;-76
2021/12/23 08:00:38;;;;;;;3.10;2.70;;;;;;;;;;5049280;28;20174;-76
2021/12/23 08:03:03;;;;;;;5.80;3.20;;;;;;;;;;5056882;28;20201;-76
2021/12/23 08:05:30;;;;;;;3.90;2.77;;;;;;;;;;5052571;28;20178;-76
2021/12/23 08:07:56;;;;;;;3.50;2.83;;;;;;;;;;5049656;28;20185;-76
2021/12/23 08:10:21;;;;;;;4.43;2.67;;;;;;;;;;5045934;28;20197;-76
2021/12/23 08:12:46;;;;;;;3.57;3.10;;;;;;;;;;5048579;28;20185;-76
2021/12/23 08:15:12;;;;;;;3.00;2.70;;;;;;;;;;5041792;28;20203;-76
2021/12/23 08:17:37;;;;;;;3.90;2.63;;;;;;;;;;5043135;28;20192;-76
2021/12/23 08:20:03;;;;;;;2.93;2.63;;;;;;;;;;5043679;28;20273;-76
2021/12/23 08:22:28;;;;;;;3.27;2.60;;;;;;;;;;5048338;28;20177;-76
2021/12/23 08:24:54;;;;;;;4.17;2.90;;;;;;;;;;5045225;28;20197;-76
2021/12/23 08:27:21;;;;;;;3.00;2.50;;;;;;;;;;5047040;28;20177;-76
2021/12/23 08:29:46;;;;;;;3.40;2.73;;;;;;;;;;5046732;28;20178;-76
2021/12/23 08:32:11;;;;;;;6.23;2.90;;;;;;;;;;5047431;28;20181;-75
2021/12/23 08:34:37;;;;;;;5.23;2.93;;;;;;;;;;5041778;28;20323;-76
2021/12/23 08:37:06;;;;;;;4.07;2.80;;;;;;;;;;5046225;28;20316;-77
2021/12/23 08:39:31;;;;;;;3.50;2.80;;;;;;;;;;5048288;28;20255;-77
2021/12/23 08:41:57;;;;;;;4.37;2.93;;;;;;;;;;5048011;28;20274;-77
2021/12/23 08:44:22;;;;;;;4.00;3.13;;;;;;;;;;5037155;28;20218;-77
2021/12/23 08:46:47;;;;;;;5.97;3.73;;;;;;;;;;5046369;28;20217;-77
2021/12/23 08:49:13;;;;;;;6.13;3.60;;;;;;;;;;5047969;28;20193;-77
2021/12/23 08:51:40;;;;;;;3.90;2.80;;;;;;;;;;5047986;28;20221;-77
2021/12/23 08:54:05;;;;;;;4.57;2.90;;;;;;;;;;5045002;28;20185;-77
2021/12/23 08:56:30;;;;;;;3.97;3.30;;;;;;;;;;5051521;28;20208;-77
2021/12/23 08:58:55;;;;;;;4.27;3.20;;;;;;;;;;5046633;28;20205;-77
2021/12/23 09:01:21;;;;;;;5.43;3.67;;;;;;;;;;5053284;28;20182;-77
2021/12/23 09:03:46;;;;;;;4.37;3.43;;;;;;;;;;5049281;28;20273;-77
2021/12/23 09:06:11;;;;;;;5.97;3.80;;;;;;;;;;5048086;28;20188;-77
2021/12/23 09:08:36;;;;;;;3.87;3.30;;;;;;;;;;5045914;28;20201;-78
2021/12/23 09:11:02;;;;;;;4.33;3.40;;;;;;;;;;5041369;28;20178;-78
2021/12/23 09:13:28;;;;;;;4.33;3.40;;;;;;;;;;5041999;28;20191;-78
2021/12/23 09:15:54;;;;;;;6.90;6.27;;;;;;;;;;5044784;28;20187;-78
2021/12/23 09:18:20;;;;;;;5.10;3.40;;;;;;;;;;5049151;28;20195;-78
2021/12/23 09:20:45;;;;;;;6.63;4.73;;;;;;;;;;5051229;28;20178;-78
2021/12/23 09:23:10;;;;;;;9.97;4.77;;;;;;;;;;5051321;28;20263;-78
2021/12/23 09:25:36;;;;;;;6.47;4.40;;;;;;;;;;5037230;28;20231;-77
2021/12/23 09:33:30;;;;;;;3.67;3.17;;;;;;;;;;5052399;28;20186;-78
2021/12/23 09:35:55;;;;;;;6.07;5.43;;;;;;;;;;5047564;28;20175;-77
2021/12/23 09:38:27;;;;;;;5.30;4.23;;;;;;;;;;5044261;28;20207;-78
2021/12/23 09:40:52;;;;;;;5.37;4.20;;;;;;;;;;5048726;28;20171;-77
2021/12/23 09:43:20;;;;;;;8.07;4.50;;;;;;;;;;5051658;28;20222;-77
2021/12/23 09:45:46;;;;;;;5.83;4.20;;;;;;;;;;5053164;28;20177;-77
2021/12/23 09:48:13;;;;;;;6.60;4.93;;;;;;;;;;5051309;28;20184;-77
2021/12/23 09:50:39;;;;;;;6.10;3.93;;;;;;;;;;5052288;28;20175;-77
2021/12/23 09:53:05;;;;;;;8.00;4.47;;;;;;;;;;5050906;28;20182;-76
2021/12/23 09:55:33;;;;;;;6.70;4.57;;;;;;;;;;5052160;28;20193;-76
2021/12/23 09:57:58;;;;;;;5.57;4.40;;;;;;;;;;5051229;28;20206;-76
2021/12/23 10:00:25;;;;;;;4.43;3.57;;;;;;;;;;5048442;28;20245;-76
2021/12/23 10:02:51;;;;;;;7.27;4.70;;;;;;;;;;5052332;28;20236;-76
2021/12/23 10:05:19;;;;;;;5.83;4.37;;;;;;;;;;5054222;28;20187;-76
2021/12/23 10:07:46;;;;;;;4.57;3.53;;;;;;;;;;5050543;28;20205;-75
2021/12/23 10:10:26;;;;;;;5.37;4.33;;;;;;;;;;5047457;28;20265;-76
2021/12/23 10:27:42;;;;;;;5.50;3.50;;;;;;;;;;5050905;28;20204;-76
2021/12/23 10:30:16;;;;;;;5.23;4.37;;;;;;;;;;5051432;28;20239;-76
2021/12/23 10:38:13;;;;;;;4.93;3.80;;;;;;;;;;5050819;28;20209;-76
2021/12/23 10:40:39;;;;;;;5.30;4.20;;;;;;;;;;5050780;28;20178;-76
2021/12/23 10:43:08;;;;;;;4.70;3.77;;;;;;;;;;5052596;28;20216;-76
2021/12/23 10:45:42;;;;;;;4.83;3.60;;;;;;;;;;5062340;28;20253;-76
2021/12/23 10:48:10;;;;;;;4.00;3.57;;;;;;;;;;5055075;28;20181;-76
2021/12/23 10:50:55;;;;;;;7.50;3.93;;;;;;;;;;5054712;28;20181;-76
2021/12/23 10:59:04;;;;;;;4.80;4.17;;;;;;;;;;5065344;28;20265;-76
2021/12/23 11:01:30;;;;;;;4.57;3.57;;;;;;;;;;5068224;28;20177;-76
2021/12/23 11:04:03;;;;;;;5.47;3.63;;;;;;;;;;5068725;28;20170;-76
2021/12/23 11:06:35;;;;;;;3.97;2.50;;;;;;;;;;5055471;28;20193;-76
2021/12/23 11:27:16;;;;;;;3.10;2.00;;;;;;;;;;5067350;28;20173;-76
2021/12/23 11:27:31;;;;;;;2.43;2.23;;;;;;;;;;5068915;28;20228;-76
2021/12/23 11:41:39;;;;;;;2.57;2.17;;;;;;;;;;5069323;28;20185;-76
2021/12/23 11:44:05;;;;;;;3.70;2.57;;;;;;;;;;5048390;28;20225;-76
2021/12/23 11:46:55;;;;;;;1.90;1.70;;;;;;;;;;5052745;28;20209;-76
2021/12/23 11:49:21;;;;;;;2.50;2.10;;;;;;;;;;5049452;28;20189;-76
2021/12/23 11:54:36;;;;;;;2.77;2.30;;;;;;;;;;5050211;28;20182;-76
2021/12/23 11:57:11;;;;;;;4.77;2.50;;;;;;;;;;5059810;28;20227;-76
2021/12/23 11:59:37;;;;;;;2.83;2.10;;;;;;;;;;5048186;28;20202;-76
2021/12/23 12:02:12;;;;;;;2.00;1.87;;;;;;;;;;5046950;28;20182;-76
2021/12/23 12:04:37;;;;;;;2.47;2.13;;;;;;;;;;5049014;28;20187;-76
2021/12/23 12:07:12;;;;;;;2.60;1.60;;;;;;;;;;5049057;28;20177;-76
2021/12/23 12:09:38;;;;;;;2.87;1.87;;;;;;;;;;5043890;28;20200;-76
2021/12/23 12:12:08;;;;;;;1.83;1.67;;;;;;;;;;5049114;28;20208;-76
2021/12/23 12:14:36;;;;;;;2.23;1.73;;;;;;;;;;5044752;28;20268;-76
2021/12/23 12:17:20;;;;;;;2.87;1.70;;;;;;;;;;5048134;28;20280;-76
2021/12/23 12:20:04;;;;;;;2.27;2.00;;;;;;;;;;5047342;28;20212;-76
2021/12/23 12:22:45;;;;;;;2.77;2.13;;;;;;;;;;5036689;28;20179;-76
2021/12/23 12:25:12;;;;;;;4.63;3.50;;;;;;;;;;5057877;28;20247;-76
2021/12/23 12:27:38;;;;;;;4.17;2.17;;;;;;;;;;5048694;28;20371;-76
2021/12/23 12:30:07;;;;;;;5.93;3.47;;;;;;;;;;5048199;28;20191;-76
2021/12/23 12:32:33;;;;;;;2.50;2.07;;;;;;;;;;5047676;28;20187;-76
2021/12/23 12:34:59;;;;;;;3.90;2.30;;;;;;;;;;5048470;28;20277;-76
2021/12/23 12:37:39;;;;;;;2.13;1.93;;;;;;;;;;5049067;28;20261;-76
2021/12/23 12:40:05;;;;;;;2.20;2.00;;;;;;;;;;5048308;28;20181;-76
2021/12/23 12:42:36;;;;;;;4.47;2.10;;;;;;;;;;5047011;28;20230;-76
2021/12/23 12:45:09;;;;;;;6.83;6.23;;;;;;;;;;5041786;28;20201;-76
2021/12/23 12:47:39;;;;;;;3.63;2.30;;;;;;;;;;5032344;28;20200;-76
2021/12/23 12:50:04;;;;;;;4.17;2.80;;;;;;;;;;5031665;28;20204;-75
2021/12/23 12:52:31;;;;;;;2.40;2.17;;;;;;;;;;5035153;28;20182;-76
2021/12/23 12:55:03;;;;;;;4.47;3.83;;;;;;;;;;5048528;28;20174;-76
2021/12/23 12:57:31;;;;;;;3.37;2.90;;;;;;;;;;5030134;28;20186;-76
2021/12/23 13:00:00;;;;;;;3.10;2.17;;;;;;;;;;5031791;28;20221;-76
2021/12/23 13:02:30;;;;;;;3.53;1.73;;;;;;;;;;5030774;28;20186;-76
2021/12/23 13:05:07;;;;;;;7.03;2.57;;;;;;;;;;5032765;28;20194;-76
2021/12/23 13:07:36;;;;;;;3.17;2.20;;;;;;;;;;5032722;28;20178;-76
2021/12/23 13:10:12;;;;;;;3.57;2.00;;;;;;;;;;5026758;28;20190;-76
2021/12/23 13:12:47;;;;;;;5.13;3.00;;;;;;;;;;5048880;28;20213;-76
2021/12/23 13:15:30;;;;;;;5.70;3.57;;;;;;;;;;5033160;28;20182;-76
2021/12/23 13:17:57;;;;;;;4.50;2.90;;;;;;;;;;5030937;28;20236;-76
2021/12/23 13:20:32;;;;;;;5.57;4.70;;;;;;;;;;5049714;28;20190;-76
2021/12/23 13:23:06;;;;;;;4.10;2.13;;;;;;;;;;5048756;28;20174;-75
2021/12/23 13:25:32;;;;;;;4.20;2.60;;;;;;;;;;5046199;28;20179;-75
2021/12/23 13:28:00;;;;;;;5.33;2.73;;;;;;;;;;5034524;28;20190;-75
2021/12/23 13:30:25;;;;;;;4.23;2.87;;;;;;;;;;5033075;28;20178;-75
2021/12/23 13:32:57;;;;;;;2.93;2.50;;;;;;;;;;5032627;28;20768;-75
2021/12/23 13:35:23;;;;;;;4.63;3.30;;;;;;;;;;5034726;28;20194;-75
2021/12/23 13:37:48;;;;;;;6.20;3.10;;;;;;;;;;5035871;28;20186;-75
2021/12/23 13:40:25;;;;;;;4.83;3.00;;;;;;;;;;5036881;28;20264;-75
2021/12/23 13:42:50;;;;;;;5.73;3.00;;;;;;;;;;5040607;28;20301;-75
2021/12/23 13:45:15;;;;;;;2.63;2.43;;;;;;;;;;5035439;28;20321;-75
2021/12/23 13:47:40;;;;;;;4.17;2.83;;;;;;;;;;5052695;28;20183;-75
2021/12/23 13:50:06;;;;;;;4.07;3.20;;;;;;;;;;5052402;28;20171;-75
2021/12/23 13:52:33;;;;;;;5.43;3.30;;;;;;;;;;5034599;28;20179;-75
2021/12/23 13:54:59;;;;;;;5.07;3.10;;;;;;;;;;5036994;28;20265;-75
2021/12/23 13:57:25;;;;;;;3.30;2.60;;;;;;;;;;5033060;28;20184;-75
2021/12/23 13:59:52;;;;;;;4.17;3.37;;;;;;;;;;5035955;28;20220;-75
2021/12/23 14:02:19;;;;;;;3.60;2.37;;;;;;;;;;5051600;28;20203;-75
2021/12/23 14:04:45;;;;;;;2.57;2.10;;;;;;;;;;5039545;28;20179;-75
2021/12/23 14:07:11;;;;;;;3.67;2.20;;;;;;;;;;5049553;28;20171;-75
2021/12/23 14:09:39;;;;;;;3.13;2.30;;;;;;;;;;5035062;28;20179;-76
2021/12/23 14:12:05;;;;;;;3.20;2.40;;;;;;;;;;5049954;28;20242;-75
2021/12/23 14:14:30;;;;;;;3.87;2.70;;;;;;;;;;5035658;28;20265;-75
2021/12/23 14:16:55;;;;;;;4.80;3.50;;;;;;;;;;5034344;28;20566;-75
2021/12/23 14:19:25;;;;;;;2.97;2.13;;;;;;;;;;5034425;28;20218;-75
2021/12/23 14:24:36;;;;;;;4.87;2.67;;;;;;;;;;5046862;28;20183;-75
2021/12/23 14:27:01;;;;;;;2.47;2.27;;;;;;;;;;5034353;28;20172;-75
2021/12/23 14:29:30;;;;;;;2.37;2.17;;;;;;;;;;5036113;28;20236;-75
2021/12/23 14:31:55;;;;;;;2.60;2.40;;;;;;;;;;5034625;28;20183;-75
2021/12/23 14:34:24;;;;;;;5.33;2.53;;;;;;;;;;5035945;28;20179;-75
2021/12/23 14:36:51;;;;;;;2.53;2.33;;;;;;;;;;5051595;28;20186;-75
2021/12/23 14:39:26;;;;;;;6.17;3.13;;;;;;;;;;5036641;28;20264;-75
2021/12/23 14:41:53;;;;;;;4.93;2.73;;;;;;;;;;5033564;28;20178;-75
2021/12/23 14:44:21;;;;;;;3.77;2.60;;;;;;;;;;5070094;28;20221;-75
2021/12/23 14:46:48;;;;;;;3.43;2.40;;;;;;;;;;5054887;28;20185;-75
2021/12/23 14:52:16;;;;;;;2.73;2.00;;;;;;;;;;5053653;28;20188;-75
2021/12/23 14:54:48;;;;;;;2.90;2.60;;;;;;;;;;5054329;28;20425;-75
2021/12/23 14:57:15;;;;;;;5.73;2.70;;;;;;;;;;5066248;28;20181;-75
2021/12/23 14:59:44;;;;;;;2.80;2.57;;;;;;;;;;5066216;28;20219;-75
2021/12/23 15:02:10;;;;;;;2.23;2.03;;;;;;;;;;5053809;28;20177;-75
2021/12/23 15:04:35;;;;;;;3.30;2.90;;;;;;;;;;5051257;28;20183;-75
2021/12/23 15:07:08;;;;;;;4.43;3.60;;;;;;;;;;5045795;28;20192;-75
2021/12/23 15:09:34;;;;;;;4.17;3.10;;;;;;;;;;5050291;28;20185;-75
2021/12/23 15:12:10;;;;;;;4.13;3.37;;;;;;;;;;5051212;28;20205;-75
2021/12/23 15:14:45;;;;;;;5.70;3.53;;;;;;;;;;5050952;28;20262;-75
2021/12/23 15:17:16;;;;;;;3.23;2.93;;;;;;;;;;5049350;28;20184;-75
2021/12/23 15:19:47;;;;;;;6.67;3.40;;;;;;;;;;5046030;28;20520;-75
2021/12/23 15:22:17;;;;;;;5.03;3.23;;;;;;;;;;5044459;28;20216;-75
2021/12/23 15:24:45;;;;;;;3.60;3.07;;;;;;;;;;5052438;28;20179;-75
2021/12/23 15:27:15;;;;;;;7.50;3.93;;;;;;;;;;5051198;28;20250;-75
2021/12/23 15:29:42;;;;;;;4.93;3.73;;;;;;;;;;5069961;28;20192;-75
2021/12/23 15:32:14;;;;;;;4.63;3.73;;;;;;;;;;5061236;28;20185;-75
2021/12/23 15:34:46;;;;;;;5.43;3.47;;;;;;;;;;5055859;28;20177;-75
2021/12/23 15:37:11;;;;;;;4.50;3.80;;;;;;;;;;5052552;28;20178;-75
2021/12/23 15:39:37;;;;;;;8.50;4.30;;;;;;;;;;5050000;28;20208;-75
2021/12/23 15:42:04;;;;;;;6.30;4.10;;;;;;;;;;5050271;28;20197;-75
2021/12/23 15:44:30;;;;;;;5.47;3.63;;;;;;;;;;5071651;28;20221;-75
2021/12/23 15:46:56;;;;;;;5.83;4.60;;;;;;;;;;5054577;28;20204;-75
2021/12/23 15:49:26;;;;;;;10.30;5.53;;;;;;;;;;5053955;28;20216;-75
2021/12/23 15:51:52;;;;;;;6.83;5.07;;;;;;;;;;5071020;28;20220;-75
2021/12/23 15:54:17;;;;;;;5.93;4.57;;;;;;;;;;5055276;28;20230;-75
2021/12/23 15:56:42;;;;;;;6.90;4.53;;;;;;;;;;5053964;28;20185;-75